Terminal Aerodrome Forecast
Issued by NWS Tampa Bay Area, FL

Current Version | Previous Version | Text Only | Print | Product List | Glossary On
Versions: 1 2 3 4 5 6 7 8 9 10 11 12 13
241
FTUS42 KTBW 141720
TAFSRQ
TAF
KSRQ 141720Z 1418/1518 10010G17KT P6SM FEW030 FEW300
     FM142200 10008KT P6SM SCT030 SCT300
     FM151300 12014KT P6SM SCT250=

USA.gov is the U.S. government's official web portal to all federal, state and local government web resources and services.